createdAt,value
2018-02-17T00:00:07.815Z,99.99
2018-02-17T00:01:07.730Z,99.99
2018-02-17T00:02:07.647Z,99.99
2018-02-17T00:03:07.562Z,99.99
2018-02-17T00:04:07.478Z,99.99
2018-02-17T00:05:07.399Z,99.99
2018-02-17T00:06:07.311Z,99.99
2018-02-17T00:07:07.226Z,99.99
2018-02-17T00:08:07.144Z,99.99
2018-02-17T00:09:07.061Z,99.99
2018-02-17T00:10:06.978Z,99.99
2018-02-17T00:11:06.891Z,99.99
2018-02-17T00:12:06.808Z,99.99
2018-02-17T00:13:06.725Z,99.99
2018-02-17T00:14:06.641Z,99.99
2018-02-17T00:15:06.557Z,99.99
2018-02-17T00:16:06.474Z,99.99
2018-02-17T00:17:06.391Z,99.99
2018-02-17T00:18:06.307Z,99.99
2018-02-17T00:19:06.223Z,99.99
2018-02-17T00:20:06.139Z,99.99
2018-02-17T00:21:06.056Z,99.99
2018-02-17T00:22:05.974Z,99.99
2018-02-17T00:23:05.890Z,99.99
2018-02-17T00:24:05.804Z,99.99
2018-02-17T00:25:05.721Z,99.99
2018-02-17T00:26:05.638Z,99.99
2018-02-17T00:27:05.552Z,99.99
2018-02-17T00:28:05.470Z,99.99
2018-02-17T00:29:05.387Z,99.99
2018-02-17T00:30:05.304Z,99.99
2018-02-17T00:31:05.219Z,99.99
2018-02-17T00:32:05.137Z,99.99
2018-02-17T00:33:05.052Z,99.99
2018-02-17T00:34:04.969Z,99.99
2018-02-17T00:35:04.890Z,99.99
2018-02-17T00:36:04.801Z,99.99
2018-02-17T00:37:04.719Z,99.99
2018-02-17T00:38:04.635Z,99.99
2018-02-17T00:39:04.551Z,99.99
2018-02-17T00:40:04.467Z,99.99
2018-02-17T00:41:04.384Z,99.99
2018-02-17T00:42:04.300Z,99.99
2018-02-17T00:43:04.215Z,99.99
2018-02-17T00:44:04.133Z,99.99
2018-02-17T00:45:04.050Z,99.99
2018-02-17T00:46:03.965Z,99.99
2018-02-17T00:47:03.885Z,99.99
2018-02-17T00:48:03.797Z,99.99
2018-02-17T00:49:03.714Z,99.99
2018-02-17T00:50:03.632Z,99.99
2018-02-17T00:51:03.549Z,99.99
2018-02-17T00:52:03.465Z,99.99
2018-02-17T00:53:03.378Z,99.99
2018-02-17T00:54:03.300Z,99.99
2018-02-17T00:55:03.210Z,99.99
2018-02-17T00:56:03.128Z,99.99
2018-02-17T00:57:03.043Z,99.99
2018-02-17T00:58:02.959Z,99.99
2018-02-17T00:59:02.874Z,99.99
2018-02-17T01:00:02.792Z,99.99
2018-02-17T01:01:02.708Z,99.99
2018-02-17T01:02:02.624Z,99.99
2018-02-17T01:03:02.538Z,99.99
2018-02-17T01:04:02.458Z,99.99
2018-02-17T01:05:02.375Z,99.99
2018-02-17T01:06:02.288Z,99.99
2018-02-17T01:07:02.209Z,99.99
2018-02-17T01:08:02.120Z,99.99
2018-02-17T01:09:02.039Z,99.99
2018-02-17T01:10:01.953Z,99.99
2018-02-17T01:11:01.868Z,99.99
2018-02-17T01:12:01.784Z,99.99
2018-02-17T01:13:01.700Z,99.99
2018-02-17T01:14:01.618Z,99.99
2018-02-17T01:15:01.532Z,99.99
2018-02-17T01:16:01.450Z,99.99
2018-02-17T01:17:01.365Z,99.99
2018-02-17T01:18:01.281Z,99.99
2018-02-17T01:19:01.196Z,99.99
2018-02-17T01:20:01.113Z,99.99
2018-02-17T01:21:01.029Z,99.99
2018-02-17T01:22:00.945Z,99.99
2018-02-17T01:23:00.862Z,99.99
2018-02-17T01:24:00.776Z,99.99
2018-02-17T01:25:00.695Z,99.99
2018-02-17T01:26:00.609Z,99.99
2018-02-17T01:27:00.525Z,99.99
2018-02-17T01:28:00.446Z,99.99
2018-02-17T01:29:00.358Z,99.99
2018-02-17T01:30:00.273Z,99.99
2018-02-17T01:31:00.189Z,99.99
2018-02-17T01:32:00.106Z,99.99
2018-02-17T01:33:00.021Z,99.99
2018-02-17T01:33:59.937Z,99.99
2018-02-17T01:34:59.858Z,99.99
2018-02-17T01:35:59.769Z,99.99
2018-02-17T01:36:59.684Z,99.99
2018-02-17T01:37:59.600Z,99.99
2018-02-17T01:38:59.517Z,99.99
2018-02-17T01:39:59.432Z,99.99
2018-02-17T01:40:59.348Z,99.99
2018-02-17T01:41:59.264Z,99.99
2018-02-17T01:42:59.179Z,99.99
2018-02-17T01:43:59.096Z,99.99
2018-02-17T01:44:59.013Z,99.99
2018-02-17T01:45:58.928Z,99.99
2018-02-17T01:46:58.844Z,99.99
2018-02-17T01:47:58.760Z,99.99
2018-02-17T01:48:58.676Z,99.99
2018-02-17T01:49:58.593Z,99.99
2018-02-17T01:50:58.507Z,99.99
2018-02-17T01:51:58.424Z,99.99
2018-02-17T01:52:58.340Z,99.99
2018-02-17T01:53:58.256Z,99.99
2018-02-17T01:54:58.171Z,99.99
2018-02-17T01:55:58.086Z,99.99
2018-02-17T01:56:58.003Z,99.99
2018-02-17T01:57:57.923Z,99.99
2018-02-17T01:58:57.834Z,99.99
2018-02-17T01:59:57.750Z,99.99
2018-02-17T02:00:57.668Z,99.99
2018-02-17T02:01:57.582Z,99.99
2018-02-17T02:03:57.415Z,99.99
2018-02-17T02:04:57.329Z,99.99
2018-02-17T02:05:57.246Z,99.99
2018-02-17T02:06:57.160Z,99.99
2018-02-17T02:07:57.076Z,99.99
2018-02-17T02:08:56.992Z,99.99
2018-02-17T02:09:56.907Z,99.99
2018-02-17T02:10:56.825Z,99.99
2018-02-17T02:11:56.738Z,99.99
2018-02-17T02:12:56.653Z,99.99
2018-02-17T02:13:56.569Z,99.99
2018-02-17T02:14:56.484Z,99.99
2018-02-17T02:15:56.399Z,99.99
2018-02-17T02:16:56.315Z,99.99
2018-02-17T02:17:56.230Z,99.99
2018-02-17T02:18:56.145Z,99.99
2018-02-17T02:19:56.062Z,99.99
2018-02-17T02:20:55.977Z,99.99
2018-02-17T02:21:55.892Z,99.99
2018-02-17T02:22:55.807Z,99.99
2018-02-17T02:23:55.723Z,99.99
2018-02-17T02:24:55.639Z,99.99
2018-02-17T02:25:55.554Z,99.99
2018-02-17T02:26:55.469Z,99.99
2018-02-17T02:27:55.384Z,99.99
2018-02-17T02:28:55.299Z,99.99
2018-02-17T02:29:55.216Z,99.99
2018-02-17T02:30:55.130Z,99.99
2018-02-17T02:31:55.049Z,99.99
2018-02-17T02:32:54.961Z,99.99
2018-02-17T02:33:54.877Z,99.99
2018-02-17T02:34:54.791Z,99.99
2018-02-17T02:35:54.711Z,99.99
2018-02-17T02:36:54.622Z,99.99
2018-02-17T02:37:54.537Z,99.99
2018-02-17T02:38:54.455Z,99.99
2018-02-17T02:39:54.371Z,99.99
2018-02-17T02:40:54.284Z,99.99
2018-02-17T02:41:54.203Z,99.99
2018-02-17T02:42:54.115Z,99.99
2018-02-17T02:43:54.031Z,99.99
2018-02-17T02:44:53.946Z,99.99
2018-02-17T02:45:53.862Z,99.99
2018-02-17T02:46:53.779Z,99.99
2018-02-17T02:47:53.693Z,99.99
2018-02-17T02:48:53.608Z,99.99
2018-02-17T02:49:53.533Z,99.99
2018-02-17T02:50:53.442Z,99.99
2018-02-17T02:51:53.355Z,99.99
2018-02-17T02:52:53.271Z,99.99
2018-02-17T02:53:53.186Z,99.99
2018-02-17T02:54:53.102Z,99.99
2018-02-17T02:55:53.018Z,99.99
2018-02-17T02:56:52.933Z,99.99
2018-02-17T02:57:52.850Z,99.99
2018-02-17T02:58:52.763Z,99.99
2018-02-17T02:59:52.681Z,99.99
2018-02-17T03:00:52.595Z,99.99
2018-02-17T03:01:52.512Z,99.99
2018-02-17T03:02:52.427Z,99.99
2018-02-17T03:03:52.344Z,99.99
2018-02-17T03:04:52.257Z,99.99
2018-02-17T03:05:52.173Z,99.99
2018-02-17T03:06:52.086Z,99.99
2018-02-17T03:07:52.003Z,99.99
2018-02-17T03:08:51.917Z,99.99
2018-02-17T03:09:51.832Z,99.99
2018-02-17T03:10:51.752Z,99.99
2018-02-17T03:11:51.662Z,99.99
2018-02-17T03:12:51.582Z,99.99
2018-02-17T03:13:51.493Z,99.99
2018-02-17T03:14:51.409Z,99.99
2018-02-17T03:15:51.324Z,99.99
2018-02-17T03:16:51.239Z,99.99
2018-02-17T03:17:51.153Z,99.99
2018-02-17T03:18:51.070Z,99.99
2018-02-17T03:19:50.984Z,99.99
2018-02-17T03:20:50.899Z,99.99
2018-02-17T03:21:50.815Z,99.99
2018-02-17T03:22:50.729Z,99.99
2018-02-17T03:23:50.944Z,99.99
2018-02-17T03:24:50.562Z,99.99
2018-02-17T03:25:50.479Z,99.99
2018-02-17T03:26:50.392Z,99.99
2018-02-17T03:27:50.306Z,99.99
2018-02-17T03:28:50.221Z,99.99
2018-02-17T03:29:50.137Z,99.99
2018-02-17T03:30:50.052Z,99.99
2018-02-17T03:31:49.966Z,99.99
2018-02-17T03:32:49.882Z,99.99
2018-02-17T03:33:49.798Z,99.99
2018-02-17T03:34:49.712Z,99.99
2018-02-17T03:35:49.629Z,99.99
2018-02-17T03:36:49.544Z,99.99
2018-02-17T03:37:49.459Z,99.99
2018-02-17T03:38:49.375Z,99.99
2018-02-17T03:39:49.293Z,99.99
2018-02-17T03:40:49.206Z,99.99
2018-02-17T03:41:49.122Z,99.99
2018-02-17T03:42:49.040Z,99.99
2018-02-17T03:43:48.951Z,99.99
2018-02-17T03:44:48.867Z,99.99
2018-02-17T03:45:48.782Z,99.99
2018-02-17T03:46:48.696Z,99.99
2018-02-17T03:47:48.613Z,99.99
2018-02-17T03:48:48.527Z,99.99
2018-02-17T03:49:48.443Z,99.99
2018-02-17T03:50:48.357Z,99.99
2018-02-17T03:51:48.272Z,99.99
2018-02-17T03:52:48.188Z,99.99
2018-02-17T03:53:48.103Z,99.99
2018-02-17T03:54:48.023Z,99.99
2018-02-17T03:55:47.932Z,99.99
2018-02-17T03:56:47.848Z,99.99
2018-02-17T03:57:47.764Z,99.99
2018-02-17T03:58:47.678Z,99.99
2018-02-17T03:59:47.593Z,99.99
2018-02-17T04:00:47.508Z,99.99
2018-02-17T04:01:47.423Z,99.99
2018-02-17T04:02:47.338Z,99.99
2018-02-17T04:03:47.252Z,99.99
2018-02-17T04:04:47.169Z,99.99
2018-02-17T04:05:47.084Z,99.99
2018-02-17T04:06:46.997Z,99.99
2018-02-17T04:07:46.913Z,99.99
2018-02-17T04:08:46.828Z,99.99
2018-02-17T04:09:46.792Z,99.99
2018-02-17T04:10:46.657Z,99.99
2018-02-17T04:11:46.573Z,99.99
2018-02-17T04:12:46.488Z,99.99
2018-02-17T04:13:46.406Z,99.99
2018-02-17T04:14:46.318Z,99.99
2018-02-17T04:15:46.233Z,99.99
2018-02-17T04:16:46.148Z,99.99
2018-02-17T04:17:46.063Z,99.99
2018-02-17T04:18:45.978Z,99.99
2018-02-17T04:19:45.894Z,99.99
2018-02-17T04:20:45.808Z,99.99
2018-02-17T04:21:45.723Z,99.99
2018-02-17T04:22:45.638Z,99.99
2018-02-17T04:23:45.552Z,99.99
2018-02-17T04:24:45.468Z,99.99
2018-02-17T04:25:45.383Z,99.99
2018-02-17T04:26:45.297Z,99.99
2018-02-17T04:27:45.213Z,99.99
2018-02-17T04:28:45.128Z,99.99
2018-02-17T04:29:45.047Z,99.99
2018-02-17T04:30:44.958Z,99.99
2018-02-17T04:31:44.872Z,99.99
2018-02-17T04:32:44.789Z,99.99
2018-02-17T04:33:44.703Z,99.99
2018-02-17T04:34:44.618Z,99.99
2018-02-17T04:35:44.532Z,99.99
2018-02-17T04:36:44.448Z,99.99
2018-02-17T04:37:44.364Z,99.99
2018-02-17T04:38:44.277Z,99.99
2018-02-17T04:39:44.195Z,99.99
2018-02-17T04:40:44.108Z,99.99
2018-02-17T04:41:44.024Z,99.99
2018-02-17T04:42:43.938Z,99.99
2018-02-17T04:43:43.854Z,99.99
2018-02-17T04:44:43.770Z,99.99
2018-02-17T04:45:43.685Z,99.99
2018-02-17T04:46:43.599Z,99.99
2018-02-17T04:47:43.515Z,99.99
2018-02-17T04:48:43.430Z,99.99
2018-02-17T04:49:43.345Z,99.99
2018-02-17T04:50:43.261Z,99.99
2018-02-17T04:51:43.178Z,99.99
2018-02-17T04:52:43.091Z,99.99
2018-02-17T04:53:43.007Z,99.99
2018-02-17T04:54:42.921Z,99.99
2018-02-17T04:55:42.835Z,99.99
2018-02-17T04:56:42.751Z,99.99
2018-02-17T04:57:42.666Z,99.99
2018-02-17T04:58:42.580Z,99.99
2018-02-17T04:59:42.495Z,99.99
2018-02-17T05:00:42.411Z,99.99
2018-02-17T05:01:42.327Z,99.99
2018-02-17T05:02:42.240Z,99.99
2018-02-17T05:03:42.155Z,99.99
2018-02-17T05:04:42.071Z,99.99
2018-02-17T05:05:41.985Z,99.99
2018-02-17T05:06:41.900Z,99.99
2018-02-17T05:07:41.815Z,99.99
2018-02-17T05:08:41.730Z,99.99
2018-02-17T05:09:41.648Z,99.99
2018-02-17T05:10:41.560Z,99.99
2018-02-17T05:11:41.476Z,99.99
2018-02-17T05:12:41.391Z,99.99
2018-02-17T05:13:41.305Z,99.99
2018-02-17T05:14:41.219Z,99.99
2018-02-17T05:15:41.134Z,99.99
2018-02-17T05:16:41.050Z,99.99
2018-02-17T05:17:40.966Z,99.99
2018-02-17T05:18:40.880Z,99.99
2018-02-17T05:19:40.795Z,99.99
2018-02-17T05:20:40.709Z,99.99
2018-02-17T05:21:40.927Z,99.99
2018-02-17T05:22:40.540Z,99.99
2018-02-17T05:23:40.455Z,99.99
2018-02-17T05:24:40.370Z,99.99
2018-02-17T05:25:40.285Z,99.99
2018-02-17T05:26:40.199Z,99.99
2018-02-17T05:27:40.115Z,99.99
2018-02-17T05:28:40.030Z,99.99
2018-02-17T05:29:39.945Z,99.99
2018-02-17T05:30:39.861Z,99.99
2018-02-17T05:31:39.774Z,99.99
2018-02-17T05:32:39.690Z,99.99
2018-02-17T05:33:39.605Z,99.99
2018-02-17T05:34:39.519Z,99.99
2018-02-17T05:35:39.434Z,99.99
2018-02-17T05:36:39.349Z,99.99
2018-02-17T05:37:39.263Z,99.99
2018-02-17T05:38:39.193Z,99.99
2018-02-17T05:39:39.094Z,99.99
2018-02-17T05:40:39.012Z,99.99
2018-02-17T05:41:38.927Z,99.99
2018-02-17T05:42:38.841Z,99.99
2018-02-17T05:43:38.754Z,99.99
2018-02-17T05:44:38.667Z,99.99
2018-02-17T05:45:38.582Z,99.99
2018-02-17T05:46:38.497Z,99.99
2018-02-17T05:47:38.412Z,99.99
2018-02-17T05:48:38.329Z,99.99
2018-02-17T05:49:38.242Z,99.99
2018-02-17T05:50:38.156Z,99.99
2018-02-17T05:51:38.072Z,99.99
2018-02-17T05:52:37.987Z,99.99
2018-02-17T05:53:37.903Z,99.99
2018-02-17T05:54:37.816Z,99.99
2018-02-17T05:55:37.732Z,99.99
2018-02-17T05:56:37.647Z,99.99
2018-02-17T05:57:37.561Z,99.99
2018-02-17T05:58:37.476Z,99.99
2018-02-17T05:59:37.390Z,99.99
2018-02-17T06:00:37.307Z,99.99
2018-02-17T06:01:37.221Z,99.99
2018-02-17T06:02:37.136Z,99.99
2018-02-17T06:03:37.051Z,99.99
2018-02-17T06:04:36.966Z,99.99
2018-02-17T06:05:36.880Z,99.99
2018-02-17T06:06:36.795Z,99.99
2018-02-17T06:07:36.710Z,99.99
2018-02-17T06:08:36.625Z,99.99
2018-02-17T06:09:36.540Z,99.99
2018-02-17T06:10:36.455Z,99.99
2018-02-17T06:11:36.369Z,99.99
2018-02-17T06:12:36.284Z,99.99
2018-02-17T06:13:36.199Z,99.99
2018-02-17T06:14:36.112Z,99.99
2018-02-17T06:15:36.028Z,99.99
2018-02-17T06:16:35.942Z,99.99
2018-02-17T06:17:35.858Z,99.99
2018-02-17T06:18:35.771Z,99.99
2018-02-17T06:19:35.686Z,99.99
2018-02-17T06:20:35.601Z,99.99
2018-02-17T06:21:35.524Z,99.99
2018-02-17T06:22:35.429Z,99.99
2018-02-17T06:23:35.344Z,99.99
2018-02-17T06:24:35.259Z,99.99
2018-02-17T06:25:35.175Z,99.99
2018-02-17T06:26:35.089Z,99.99
2018-02-17T06:27:35.003Z,99.99
2018-02-17T06:28:34.922Z,99.99
2018-02-17T06:29:34.833Z,99.99
2018-02-17T06:30:34.747Z,99.99
2018-02-17T06:31:34.664Z,99.99
2018-02-17T06:32:34.577Z,99.99
2018-02-17T06:33:34.491Z,99.99
2018-02-17T06:34:34.409Z,99.99
2018-02-17T06:35:34.320Z,99.99
2018-02-17T06:36:34.235Z,99.99
2018-02-17T06:37:34.153Z,99.99
2018-02-17T06:38:34.064Z,99.99
2018-02-17T06:39:33.978Z,99.99
2018-02-17T06:40:33.893Z,99.99
2018-02-17T06:41:33.809Z,99.99
2018-02-17T06:42:33.722Z,99.99
2018-02-17T06:43:33.639Z,99.99
2018-02-17T06:44:33.553Z,99.99
2018-02-17T06:45:33.469Z,99.99
2018-02-17T06:46:33.381Z,99.99
2018-02-17T06:47:33.298Z,99.99
2018-02-17T06:48:33.212Z,99.99
2018-02-17T06:49:33.129Z,99.99
2018-02-17T06:50:33.041Z,99.99
2018-02-17T06:51:32.956Z,99.99
2018-02-17T06:52:32.870Z,99.99
2018-02-17T06:53:32.786Z,99.99
2018-02-17T06:54:32.700Z,99.99
2018-02-17T06:55:32.616Z,99.99
2018-02-17T06:56:32.532Z,99.99
2018-02-17T06:57:32.446Z,99.99
2018-02-17T06:58:32.360Z,99.99
2018-02-17T06:59:32.275Z,99.99
2018-02-17T07:00:32.189Z,99.99
2018-02-17T07:01:32.106Z,99.99
2018-02-17T07:02:32.020Z,99.99
2018-02-17T07:03:31.940Z,99.99
2018-02-17T07:04:31.850Z,99.99
2018-02-17T07:05:31.765Z,99.99
2018-02-17T07:06:31.681Z,99.99
2018-02-17T07:07:31.594Z,99.99
2018-02-17T07:08:31.510Z,99.99
2018-02-17T07:09:31.425Z,99.99
2018-02-17T07:10:31.339Z,99.99
2018-02-17T07:11:31.255Z,99.99
2018-02-17T07:12:31.170Z,99.99
2018-02-17T07:13:31.085Z,99.99
2018-02-17T07:14:30.999Z,99.99
2018-02-17T07:15:30.914Z,99.99
2018-02-17T07:16:30.830Z,99.99
2018-02-17T07:17:30.745Z,99.99
2018-02-17T07:18:30.663Z,99.99
2018-02-17T07:19:30.574Z,99.99
2018-02-17T07:20:30.490Z,99.99
2018-02-17T07:21:30.405Z,99.99
2018-02-17T07:22:30.320Z,99.99
2018-02-17T07:23:30.235Z,99.99
2018-02-17T07:24:30.151Z,99.99
2018-02-17T07:25:30.066Z,99.99
2018-02-17T07:26:29.981Z,99.99
2018-02-17T07:27:29.900Z,99.99
2018-02-17T07:28:29.811Z,99.99
2018-02-17T07:29:29.726Z,99.99
2018-02-17T07:30:29.642Z,99.99
2018-02-17T07:31:29.559Z,99.99
2018-02-17T07:32:29.474Z,99.99
2018-02-17T07:33:29.388Z,99.99
2018-02-17T07:34:29.303Z,99.99
2018-02-17T07:35:29.219Z,99.99
2018-02-17T07:36:29.134Z,99.99
2018-02-17T07:37:29.049Z,99.99
2018-02-17T07:38:28.964Z,99.99
2018-02-17T07:39:28.880Z,99.99
2018-02-17T07:40:28.796Z,99.99
2018-02-17T07:41:28.712Z,99.99
2018-02-17T07:42:28.627Z,99.99
2018-02-17T07:43:28.542Z,99.99
2018-02-17T07:44:28.457Z,99.99
2018-02-17T07:45:28.373Z,99.99
2018-02-17T07:46:28.288Z,99.99
2018-02-17T07:47:28.203Z,99.99
2018-02-17T07:48:28.119Z,99.99
2018-02-17T07:49:28.034Z,99.99
2018-02-17T07:50:27.950Z,99.99
2018-02-17T07:51:27.870Z,99.99
2018-02-17T07:52:27.781Z,99.99
2018-02-17T07:53:27.697Z,99.99
2018-02-17T07:54:27.613Z,99.99
2018-02-17T07:55:27.529Z,99.99
2018-02-17T07:56:27.446Z,99.99
2018-02-17T07:57:27.360Z,99.99
2018-02-17T07:58:27.283Z,99.99
2018-02-17T07:59:27.191Z,99.99
2018-02-17T08:00:27.137Z,99.99
2018-02-17T08:01:27.023Z,99.99
2018-02-17T08:02:26.939Z,99.99
2018-02-17T08:03:26.854Z,99.99
2018-02-17T08:04:26.772Z,99.99
2018-02-17T08:05:26.686Z,99.99
2018-02-17T08:06:26.602Z,99.99
2018-02-17T08:07:26.518Z,99.99
2018-02-17T08:08:26.433Z,99.99
2018-02-17T08:09:26.349Z,99.99
2018-02-17T08:10:26.264Z,99.99
2018-02-17T08:11:26.181Z,99.99
2018-02-17T08:12:26.098Z,99.99
2018-02-17T08:13:26.012Z,99.99
2018-02-17T08:14:25.927Z,99.99
2018-02-17T08:15:25.880Z,99.99
2018-02-17T08:16:25.759Z,99.99
2018-02-17T08:17:25.707Z,99.99
2018-02-17T08:18:25.589Z,99.99
2018-02-17T08:19:25.505Z,99.99
2018-02-17T08:20:25.422Z,99.99
2018-02-17T08:21:25.336Z,99.99
2018-02-17T08:22:25.252Z,99.99
2018-02-17T08:23:25.167Z,99.99
2018-02-17T08:24:25.083Z,99.99
2018-02-17T08:25:25.000Z,99.99
2018-02-17T08:26:24.919Z,99.99
2018-02-17T08:27:24.829Z,99.99
2018-02-17T08:28:24.746Z,99.99
2018-02-17T08:29:24.662Z,99.99
2018-02-17T08:30:24.579Z,99.99
2018-02-17T08:31:24.493Z,99.99
2018-02-17T08:32:24.408Z,99.99
2018-02-17T08:33:24.326Z,99.99
2018-02-17T08:34:24.240Z,99.99
2018-02-17T08:35:24.155Z,99.99
2018-02-17T08:36:24.072Z,99.99
2018-02-17T08:37:23.990Z,99.99
2018-02-17T08:38:23.902Z,99.99
2018-02-17T08:39:23.818Z,99.99
2018-02-17T08:40:23.735Z,99.99
2018-02-17T08:41:23.652Z,99.99
2018-02-17T08:42:23.565Z,99.99
2018-02-17T08:43:23.482Z,99.99
2018-02-17T08:44:23.400Z,99.99
2018-02-17T08:45:23.314Z,99.99
2018-02-17T08:46:23.229Z,99.99
2018-02-17T08:47:23.145Z,99.99
2018-02-17T08:48:23.062Z,99.99
2018-02-17T08:49:22.977Z,99.99
2018-02-17T08:50:22.892Z,99.99
2018-02-17T08:51:22.811Z,99.99
2018-02-17T08:52:22.728Z,99.99
2018-02-17T08:53:22.641Z,99.99
2018-02-17T08:54:22.557Z,99.99
2018-02-17T08:55:22.474Z,99.99
2018-02-17T08:56:22.390Z,99.99
2018-02-17T08:57:22.347Z,99.99
2018-02-17T08:58:22.222Z,99.99
2018-02-17T08:59:22.140Z,99.99
2018-02-17T09:00:22.055Z,99.99
2018-02-17T09:01:21.972Z,99.99
2018-02-17T09:02:21.887Z,99.99
2018-02-17T09:03:21.803Z,99.99
2018-02-17T09:04:21.720Z,99.99
2018-02-17T09:05:21.637Z,99.99
2018-02-17T09:06:21.554Z,99.99
2018-02-17T09:07:21.469Z,99.99
2018-02-17T09:08:21.391Z,99.99
2018-02-17T09:09:21.302Z,99.99
2018-02-17T09:10:21.219Z,99.99
2018-02-17T09:11:21.134Z,99.99
2018-02-17T09:12:21.051Z,99.99
2018-02-17T09:13:20.967Z,99.99
2018-02-17T09:14:20.883Z,99.99
2018-02-17T09:15:20.800Z,99.99
2018-02-17T09:16:20.715Z,99.99
2018-02-17T09:17:20.632Z,99.99
2018-02-17T09:18:20.548Z,99.99
2018-02-17T09:19:20.466Z,99.99
2018-02-17T09:20:20.381Z,99.99
2018-02-17T09:21:20.297Z,99.99
2018-02-17T09:22:20.212Z,99.99
2018-02-17T09:23:20.129Z,99.99
2018-02-17T09:24:20.045Z,99.99
2018-02-17T09:25:19.965Z,99.99
2018-02-17T09:26:19.877Z,99.99
2018-02-17T09:27:19.829Z,99.99
2018-02-17T09:28:19.710Z,99.99
2018-02-17T09:29:19.627Z,99.99
2018-02-17T09:30:19.543Z,99.99
2018-02-17T09:31:19.459Z,99.99
2018-02-17T09:32:19.376Z,99.99
2018-02-17T09:33:19.293Z,99.99
2018-02-17T09:34:19.208Z,99.99
2018-02-17T09:35:19.125Z,99.99
2018-02-17T09:36:19.042Z,99.99
2018-02-17T09:37:18.959Z,99.95
2018-02-17T09:38:18.875Z,99.99
2018-02-17T09:39:18.791Z,99.99
2018-02-17T09:40:18.710Z,99.99
2018-02-17T09:41:18.625Z,99.99
2018-02-17T09:42:18.541Z,99.85
2018-02-17T09:43:18.458Z,99.99
2018-02-17T09:44:18.375Z,99.76
2018-02-17T09:45:18.292Z,99.48
2018-02-17T09:46:18.208Z,99.10
2018-02-17T09:47:18.129Z,99.85
2018-02-17T09:48:18.042Z,99.38
2018-02-17T09:49:17.974Z,99.38
2018-02-17T09:50:17.875Z,98.91
2018-02-17T09:51:17.793Z,98.72
2018-02-17T09:52:17.709Z,99.10
2018-02-17T09:53:17.627Z,98.34
2018-02-17T09:54:17.543Z,98.06
2018-02-17T09:55:17.460Z,97.87
2018-02-17T09:56:17.377Z,97.87
2018-02-17T09:57:17.296Z,98.44
2018-02-17T09:58:17.210Z,98.72
2018-02-17T09:59:17.127Z,98.63
2018-02-17T10:00:17.045Z,98.44
2018-02-17T10:01:16.965Z,97.77
2018-02-17T10:02:16.880Z,97.87
2018-02-17T10:03:16.794Z,98.25
2018-02-17T10:04:16.714Z,97.20
2018-02-17T10:05:16.629Z,98.06
2018-02-17T10:06:16.548Z,97.58
2018-02-17T10:07:16.461Z,96.92
2018-02-17T10:08:16.383Z,96.64
2018-02-17T10:09:16.297Z,96.83
2018-02-17T10:10:16.216Z,96.73
2018-02-17T10:11:16.131Z,96.64
2018-02-17T10:12:16.048Z,96.73
2018-02-17T10:13:15.966Z,96.26
2018-02-17T10:14:15.884Z,96.26
2018-02-17T10:15:15.800Z,96.35
2018-02-17T10:16:15.720Z,95.97
2018-02-17T10:17:15.636Z,95.31
2018-02-17T10:18:15.552Z,95.69
2018-02-17T10:19:15.469Z,96.35
2018-02-17T10:20:15.387Z,96.16
2018-02-17T10:21:15.304Z,96.26
2018-02-17T10:22:15.224Z,96.26
2018-02-17T10:23:15.138Z,96.07
2018-02-17T10:24:15.056Z,96.54
2018-02-17T10:25:14.973Z,96.64
2018-02-17T10:26:14.890Z,96.35
2018-02-17T10:27:14.807Z,95.97
2018-02-17T10:28:14.725Z,96.07
2018-02-17T10:29:14.643Z,96.35
2018-02-17T10:30:14.559Z,95.69
2018-02-17T10:31:14.480Z,95.88
2018-02-17T10:32:14.396Z,95.97
2018-02-17T10:33:14.312Z,94.56
2018-02-17T10:34:14.232Z,95.12
2018-02-17T10:35:14.148Z,94.65
2018-02-17T10:36:14.064Z,94.74
2018-02-17T10:37:13.981Z,95.31
2018-02-17T10:38:13.899Z,96.07
2018-02-17T10:39:13.816Z,96.45
2018-02-17T10:40:13.734Z,96.07
2018-02-17T10:41:13.652Z,95.97
2018-02-17T10:42:13.569Z,96.16
2018-02-17T10:43:13.486Z,94.65
2018-02-17T10:44:13.408Z,94.70
2018-02-17T10:45:13.322Z,94.56
2018-02-17T10:46:13.239Z,93.51
2018-02-17T10:47:13.161Z,94.56
2018-02-17T10:48:13.075Z,95.03
2018-02-17T10:49:12.993Z,95.03
2018-02-17T10:50:12.911Z,94.37
2018-02-17T10:51:12.828Z,94.37
2018-02-17T10:52:12.746Z,94.46
2018-02-17T10:53:12.664Z,94.74
2018-02-17T10:54:12.585Z,95.12
2018-02-17T10:55:12.500Z,95.31
2018-02-17T10:56:12.416Z,95.78
2018-02-17T10:57:12.335Z,95.69
2018-02-17T10:58:12.257Z,96.07
2018-02-17T10:59:12.172Z,95.88
2018-02-17T11:00:12.088Z,95.21
2018-02-17T11:01:12.006Z,94.74
2018-02-17T11:02:11.922Z,94.93
2018-02-17T11:03:11.840Z,95.03
2018-02-17T11:04:11.761Z,95.03
2018-02-17T11:05:11.676Z,94.74
2018-02-17T11:06:11.593Z,94.42
2018-02-17T11:07:11.511Z,95.12
2018-02-17T11:08:11.428Z,95.26
2018-02-17T11:09:11.347Z,95.93
2018-02-17T11:10:11.264Z,95.45
2018-02-17T11:11:11.184Z,94.79
2018-02-17T11:12:11.099Z,95.03
2018-02-17T11:13:11.018Z,94.18
2018-02-17T11:14:10.938Z,94.08
2018-02-17T11:15:10.853Z,94.27
2018-02-17T11:16:10.795Z,93.89
2018-02-17T11:17:10.688Z,94.08
2018-02-17T11:18:10.638Z,95.12
2018-02-17T11:19:10.523Z,95.40
2018-02-17T11:20:10.440Z,95.12
2018-02-17T11:21:10.358Z,95.03
2018-02-17T11:22:10.275Z,95.21
2018-02-17T11:23:10.193Z,94.93
2018-02-17T11:24:10.111Z,94.93
2018-02-17T11:25:10.029Z,94.37
2018-02-17T11:26:09.946Z,94.46
2018-02-17T11:27:09.864Z,94.27
2018-02-17T11:28:09.782Z,93.80
2018-02-17T11:29:09.700Z,95.31
2018-02-17T11:30:09.615Z,95.40
2018-02-17T11:31:09.533Z,94.70
2018-02-17T11:32:09.451Z,94.37
2018-02-17T11:33:09.369Z,94.93
2018-02-17T11:34:09.286Z,95.07
2018-02-17T11:35:09.204Z,94.70
2018-02-17T11:36:09.121Z,93.94
2018-02-17T11:37:09.039Z,94.42
2018-02-17T11:38:08.956Z,93.80
2018-02-17T11:39:08.873Z,95.21
2018-02-17T11:40:08.796Z,94.56
2018-02-17T11:41:08.710Z,93.89
2018-02-17T11:42:08.627Z,93.61
2018-02-17T11:43:08.545Z,94.08
2018-02-17T11:44:08.463Z,94.46
2018-02-17T11:45:08.381Z,94.37
2018-02-17T11:46:08.327Z,94.27
2018-02-17T11:47:08.216Z,94.84
2018-02-17T11:48:08.134Z,95.88
2018-02-17T11:49:08.052Z,95.69
2018-02-17T11:50:07.968Z,96.07
2018-02-17T11:51:07.908Z,95.40
2018-02-17T11:52:07.804Z,93.61
2018-02-17T11:53:07.721Z,93.80
2018-02-17T11:54:07.640Z,94.04
2018-02-17T11:55:07.559Z,94.32
2018-02-17T11:56:07.475Z,94.70
2018-02-17T11:57:07.393Z,93.65
2018-02-17T11:58:07.311Z,93.56
2018-02-17T11:59:07.227Z,93.65
2018-02-17T12:00:07.146Z,93.56
2018-02-17T12:01:07.065Z,93.84
2018-02-17T12:02:06.981Z,93.51
2018-02-17T12:03:06.898Z,93.27
2018-02-17T12:04:06.816Z,94.23
2018-02-17T12:05:06.735Z,93.89
2018-02-17T12:06:06.651Z,93.80
2018-02-17T12:07:06.570Z,93.42
2018-02-17T12:08:06.487Z,95.40
2018-02-17T12:09:06.405Z,94.13
2018-02-17T12:10:06.360Z,93.51
2018-02-17T12:11:06.244Z,94.23
2018-02-17T12:12:06.158Z,94.93
2018-02-17T12:13:06.076Z,93.84
2018-02-17T12:14:05.994Z,93.70
2018-02-17T12:15:05.958Z,94.08
2018-02-17T12:16:05.831Z,93.99
2018-02-17T12:17:05.746Z,94.18
2018-02-17T12:18:05.666Z,94.08
2018-02-17T12:19:05.584Z,94.32
2018-02-17T12:20:05.502Z,93.84
2018-02-17T12:21:05.426Z,93.84
2018-02-17T12:22:05.337Z,94.23
2018-02-17T12:23:05.251Z,93.75
2018-02-17T12:24:05.169Z,93.56
2018-02-17T12:25:05.087Z,93.27
2018-02-17T12:26:05.008Z,93.37
2018-02-17T12:27:04.922Z,92.05
2018-02-17T12:28:04.840Z,92.14
2018-02-17T12:29:04.758Z,92.33
2018-02-17T12:30:04.676Z,92.43
2018-02-17T12:31:04.593Z,93.37
2018-02-17T12:32:04.512Z,93.65
2018-02-17T12:33:04.430Z,93.56
2018-02-17T12:34:04.347Z,92.24
2018-02-17T12:35:04.265Z,92.24
2018-02-17T12:36:04.184Z,92.90
2018-02-17T12:37:04.102Z,92.99
2018-02-17T12:38:04.019Z,93.56
2018-02-17T12:39:03.938Z,92.90
2018-02-17T12:40:03.856Z,92.33
2018-02-17T12:41:03.775Z,92.05
2018-02-17T12:42:03.692Z,92.71
2018-02-17T12:43:03.611Z,93.08
2018-02-17T12:44:03.534Z,92.80
2018-02-17T12:45:03.502Z,92.33
2018-02-17T12:46:03.365Z,92.52
2018-02-17T12:47:03.285Z,93.46
2018-02-17T12:48:03.202Z,93.37
2018-02-17T12:49:03.121Z,92.80
2018-02-17T12:50:03.038Z,92.33
2018-02-17T12:51:02.956Z,91.67
2018-02-17T12:52:02.875Z,91.19